sensor_id;sensor_type;location;lat;lon;timestamp;temperature;humidity
6978;DHT22;3529;53.244;10.414;2022-10-31T00:00:23;9.60;99.90
6978;DHT22;3529;53.244;10.414;2022-10-31T00:02:48;9.60;99.90
6978;DHT22;3529;53.244;10.414;2022-10-31T00:05:14;9.60;99.90
6978;DHT22;3529;53.244;10.414;2022-10-31T00:07:40;9.50;99.90
6978;DHT22;3529;53.244;10.414;2022-10-31T00:10:06;9.50;99.90
6978;DHT22;3529;53.244;10.414;2022-10-31T00:12:32;9.50;99.90
6978;DHT22;3529;53.244;10.414;2022-10-31T00:14:58;9.40;99.90
6978;DHT22;3529;53.244;10.414;2022-10-31T00:17:23;9.40;99.90
6978;DHT22;3529;53.244;10.414;2022-10-31T00:19:49;9.40;99.90
6978;DHT22;3529;53.244;10.414;2022-10-31T07:45:54;12.80;99.90
6978;DHT22;3529;53.244;10.414;2022-10-31T07:48:20;12.80;99.90
6978;DHT22;3529;53.244;10.414;2022-10-31T07:50:46;12.80;99.90
6978;DHT22;3529;53.244;10.414;2022-10-31T07:53:13;12.90;99.90
6978;DHT22;3529;53.244;10.414;2022-10-31T07:55:39;12.90;99.90
6978;DHT22;3529;53.244;10.414;2022-10-31T07:58:07;12.90;99.90
6978;DHT22;3529;53.244;10.414;2022-10-31T08:00:35;13.00;99.90
6978;DHT22;3529;53.244;10.414;2022-10-31T08:03:12;13.00;99.90
6978;DHT22;3529;53.244;10.414;2022-10-31T08:05:38;13.10;99.90
6978;DHT22;3529;53.244;10.414;2022-10-31T08:08:05;13.20;99.90
6978;DHT22;3529;53.244;10.414;2022-10-31T08:10:31;13.20;99.90
6978;DHT22;3529;53.244;10.414;2022-10-31T08:12:58;13.30;99.90
6978;DHT22;3529;53.244;10.414;2022-10-31T08:15:25;13.40;99.90
6978;DHT22;3529;53.244;10.414;2022-10-31T08:17:50;13.50;99.90
6978;DHT22;3529;53.244;10.414;2022-10-31T08:20:16;13.50;99.90
6978;DHT22;3529;53.244;10.414;2022-10-31T08:22:42;13.60;99.90
6978;DHT22;3529;53.244;10.414;2022-10-31T08:25:08;13.60;99.90
6978;DHT22;3529;53.244;10.414;2022-10-31T08:27:34;13.70;99.90
6978;DHT22;3529;53.244;10.414;2022-10-31T08:30:00;13.80;99.90
6978;DHT22;3529;53.244;10.414;2022-10-31T08:32:25;13.90;99.90
6978;DHT22;3529;53.244;10.414;2022-10-31T08:34:51;13.90;99.90
6978;DHT22;3529;53.244;10.414;2022-10-31T08:37:16;14.00;99.90
6978;DHT22;3529;53.244;10.414;2022-10-31T08:39:47;14.10;99.90
6978;DHT22;3529;53.244;10.414;2022-10-31T08:42:13;14.20;99.90
6978;DHT22;3529;53.244;10.414;2022-10-31T08:44:39;14.20;99.90
6978;DHT22;3529;53.244;10.414;2022-10-31T08:47:05;14.30;99.90
6978;DHT22;3529;53.244;10.414;2022-10-31T08:49:30;14.40;99.90
6978;DHT22;3529;53.244;10.414;2022-10-31T08:51:56;14.40;99.90
6978;DHT22;3529;53.244;10.414;2022-10-31T08:54:21;14.40;99.90
6978;DHT22;3529;53.244;10.414;2022-10-31T08:56:47;14.50;99.90
6978;DHT22;3529;53.244;10.414;2022-10-31T08:59:13;14.50;99.90
6978;DHT22;3529;53.244;10.414;2022-10-31T09:01:38;14.70;99.90
6978;DHT22;3529;53.244;10.414;2022-10-31T09:04:04;14.70;99.90
6978;DHT22;3529;53.244;10.414;2022-10-31T09:06:29;14.90;99.90
6978;DHT22;3529;53.244;10.414;2022-10-31T09:08:55;14.90;99.90
6978;DHT22;3529;53.244;10.414;2022-10-31T09:11:20;14.90;99.90
6978;DHT22;3529;53.244;10.414;2022-10-31T09:13:46;14.80;99.90
6978;DHT22;3529;53.244;10.414;2022-10-31T09:16:12;14.90;99.90
6978;DHT22;3529;53.244;10.414;2022-10-31T09:18:37;14.90;99.90
6978;DHT22;3529;53.244;10.414;2022-10-31T09:21:03;14.90;99.90
6978;DHT22;3529;53.244;10.414;2022-10-31T09:23:29;15.00;99.90
6978;DHT22;3529;53.244;10.414;2022-10-31T09:25:55;15.00;99.90
6978;DHT22;3529;53.244;10.414;2022-10-31T09:28:22;15.00;99.90
6978;DHT22;3529;53.244;10.414;2022-10-31T09:30:50;15.10;99.90
6978;DHT22;3529;53.244;10.414;2022-10-31T09:33:17;15.10;99.90
6978;DHT22;3529;53.244;10.414;2022-10-31T09:35:43;15.10;99.90
6978;DHT22;3529;53.244;10.414;2022-10-31T09:38:11;15.20;99.90
6978;DHT22;3529;53.244;10.414;2022-10-31T09:40:55;15.20;99.90
6978;DHT22;3529;53.244;10.414;2022-10-31T09:46:18;15.10;99.90
6978;DHT22;3529;53.244;10.414;2022-10-31T09:49:04;15.10;99.90
6978;DHT22;3529;53.244;10.414;2022-10-31T09:51:34;15.10;99.90
6978;DHT22;3529;53.244;10.414;2022-10-31T09:54:32;15.20;99.90
6978;DHT22;3529;53.244;10.414;2022-10-31T09:56:59;15.10;99.90
6978;DHT22;3529;53.244;10.414;2022-10-31T09:59:38;15.10;99.90
6978;DHT22;3529;53.244;10.414;2022-10-31T10:02:05;15.00;99.90
6978;DHT22;3529;53.244;10.414;2022-10-31T10:10:00;15.20;99.90
6978;DHT22;3529;53.244;10.414;2022-10-31T10:13:09;15.30;99.90
6978;DHT22;3529;53.244;10.414;2022-10-31T10:18:32;15.40;99.90
6978;DHT22;3529;53.244;10.414;2022-10-31T10:26:37;15.60;99.90
6978;DHT22;3529;53.244;10.414;2022-10-31T10:31:55;15.70;99.90
6978;DHT22;3529;53.244;10.414;2022-10-31T10:34:33;15.80;99.90
6978;DHT22;3529;53.244;10.414;2022-10-31T10:37:20;15.80;99.90
6978;DHT22;3529;53.244;10.414;2022-10-31T10:39:52;15.50;99.90
6978;DHT22;3529;53.244;10.414;2022-10-31T10:42:19;15.80;99.90
6978;DHT22;3529;53.244;10.414;2022-10-31T10:45:17;15.80;99.90
6978;DHT22;3529;53.244;10.414;2022-10-31T10:48:18;15.90;99.90
6978;DHT22;3529;53.244;10.414;2022-10-31T10:50:48;16.00;99.90
6978;DHT22;3529;53.244;10.414;2022-10-31T10:53:25;16.20;99.90
6978;DHT22;3529;53.244;10.414;2022-10-31T10:56:17;16.40;99.90
6978;DHT22;3529;53.244;10.414;2022-10-31T10:58:45;16.40;99.90
6978;DHT22;3529;53.244;10.414;2022-10-31T11:01:12;16.40;99.90
6978;DHT22;3529;53.244;10.414;2022-10-31T11:03:40;16.30;99.90
6978;DHT22;3529;53.244;10.414;2022-10-31T11:06:19;16.20;99.90
6978;DHT22;3529;53.244;10.414;2022-10-31T11:08:48;16.20;99.90
6978;DHT22;3529;53.244;10.414;2022-10-31T11:13:45;16.20;99.90
6978;DHT22;3529;53.244;10.414;2022-10-31T11:16:36;16.20;99.90
6978;DHT22;3529;53.244;10.414;2022-10-31T11:19:24;16.20;99.90
6978;DHT22;3529;53.244;10.414;2022-10-31T11:21:52;16.20;99.90
6978;DHT22;3529;53.244;10.414;2022-10-31T11:24:24;16.20;99.90
6978;DHT22;3529;53.244;10.414;2022-10-31T11:27:10;16.10;99.90
6978;DHT22;3529;53.244;10.414;2022-10-31T11:29:37;16.00;99.90
6978;DHT22;3529;53.244;10.414;2022-10-31T11:32:02;15.90;99.90
6978;DHT22;3529;53.244;10.414;2022-10-31T11:34:31;15.90;99.90
6978;DHT22;3529;53.244;10.414;2022-10-31T11:37:23;15.90;99.90
6978;DHT22;3529;53.244;10.414;2022-10-31T11:39:54;15.90;99.90
6978;DHT22;3529;53.244;10.414;2022-10-31T11:42:26;15.90;99.90
6978;DHT22;3529;53.244;10.414;2022-10-31T11:44:53;15.90;99.90
6978;DHT22;3529;53.244;10.414;2022-10-31T11:47:30;15.90;99.90
6978;DHT22;3529;53.244;10.414;2022-10-31T11:50:00;15.90;99.90
6978;DHT22;3529;53.244;10.414;2022-10-31T11:52:29;16.00;99.90
6978;DHT22;3529;53.244;10.414;2022-10-31T11:55:01;16.10;99.90
6978;DHT22;3529;53.244;10.414;2022-10-31T11:57:30;16.10;99.90
6978;DHT22;3529;53.244;10.414;2022-10-31T12:00:02;16.20;99.90
6978;DHT22;3529;53.244;10.414;2022-10-31T12:02:29;16.40;99.90
6978;DHT22;3529;53.244;10.414;2022-10-31T12:05:06;16.60;99.90
6978;DHT22;3529;53.244;10.414;2022-10-31T12:07:33;16.70;99.90
6978;DHT22;3529;53.244;10.414;2022-10-31T12:09:59;16.70;99.90
6978;DHT22;3529;53.244;10.414;2022-10-31T12:12:57;16.70;99.90
6978;DHT22;3529;53.244;10.414;2022-10-31T12:15:27;16.70;99.90
6978;DHT22;3529;53.244;10.414;2022-10-31T12:20:32;16.90;99.90
6978;DHT22;3529;53.244;10.414;2022-10-31T12:23:14;17.10;99.90
6978;DHT22;3529;53.244;10.414;2022-10-31T12:25:55;17.20;99.90
6978;DHT22;3529;53.244;10.414;2022-10-31T12:37:22;17.10;99.90
6978;DHT22;3529;53.244;10.414;2022-10-31T12:40:51;16.90;99.90
6978;DHT22;3529;53.244;10.414;2022-10-31T12:43:11;16.80;99.90
6978;DHT22;3529;53.244;10.414;2022-10-31T12:45:54;16.70;99.90
6978;DHT22;3529;53.244;10.414;2022-10-31T12:51:19;16.40;99.90
6978;DHT22;3529;53.244;10.414;2022-10-31T12:59:53;16.10;99.90
6978;DHT22;3529;53.244;10.414;2022-10-31T13:04:55;16.20;99.90
6978;DHT22;3529;53.244;10.414;2022-10-31T13:10:17;16.30;99.90
6978;DHT22;3529;53.244;10.414;2022-10-31T13:12:45;16.40;99.90
6978;DHT22;3529;53.244;10.414;2022-10-31T13:15:17;16.40;99.90
6978;DHT22;3529;53.244;10.414;2022-10-31T13:17:46;16.40;99.90
6978;DHT22;3529;53.244;10.414;2022-10-31T13:20:38;16.40;99.90
6978;DHT22;3529;53.244;10.414;2022-10-31T13:23:14;16.30;99.90
6978;DHT22;3529;53.244;10.414;2022-10-31T13:25:46;16.30;99.90
6978;DHT22;3529;53.244;10.414;2022-10-31T13:31:06;16.20;99.90
6978;DHT22;3529;53.244;10.414;2022-10-31T13:41:53;16.10;99.90
6978;DHT22;3529;53.244;10.414;2022-10-31T13:44:26;16.10;99.90
6978;DHT22;3529;53.244;10.414;2022-10-31T13:46:53;16.10;99.90
6978;DHT22;3529;53.244;10.414;2022-10-31T14:00:06;15.90;99.90
6978;DHT22;3529;53.244;10.414;2022-10-31T14:02:46;15.90;99.90
6978;DHT22;3529;53.244;10.414;2022-10-31T14:05:33;15.90;99.90
6978;DHT22;3529;53.244;10.414;2022-10-31T14:08:02;15.80;99.90
6978;DHT22;3529;53.244;10.414;2022-10-31T14:10:35;15.90;99.90
6978;DHT22;3529;53.244;10.414;2022-10-31T14:13:08;15.90;99.90
6978;DHT22;3529;53.244;10.414;2022-10-31T14:15:42;15.90;99.90
6978;DHT22;3529;53.244;10.414;2022-10-31T14:18:23;15.90;99.90
6978;DHT22;3529;53.244;10.414;2022-10-31T14:20:49;15.90;99.90
6978;DHT22;3529;53.244;10.414;2022-10-31T14:26:29;15.90;99.90
6978;DHT22;3529;53.244;10.414;2022-10-31T14:31:42;15.80;99.90
6978;DHT22;3529;53.244;10.414;2022-10-31T14:37:18;15.70;99.90
6978;DHT22;3529;53.244;10.414;2022-10-31T14:45:39;15.50;99.90
6978;DHT22;3529;53.244;10.414;2022-10-31T14:51:25;15.20;99.90
6978;DHT22;3529;53.244;10.414;2022-10-31T14:53:56;15.10;99.90
6978;DHT22;3529;53.244;10.414;2022-10-31T14:56:28;14.90;99.90
6978;DHT22;3529;53.244;10.414;2022-10-31T14:58:57;14.80;99.90
6978;DHT22;3529;53.244;10.414;2022-10-31T15:01:33;14.70;99.90
6978;DHT22;3529;53.244;10.414;2022-10-31T15:04:15;14.50;99.90
6978;DHT22;3529;53.244;10.414;2022-10-31T15:06:48;14.40;99.90
6978;DHT22;3529;53.244;10.414;2022-10-31T15:11:48;14.20;99.90
6978;DHT22;3529;53.244;10.414;2022-10-31T15:14:26;14.10;99.90
6978;DHT22;3529;53.244;10.414;2022-10-31T15:16:52;14.00;99.90
6978;DHT22;3529;53.244;10.414;2022-10-31T15:19:26;13.90;99.90
6978;DHT22;3529;53.244;10.414;2022-10-31T15:21:54;13.80;99.90
6978;DHT22;3529;53.244;10.414;2022-10-31T15:24:20;13.70;99.90
6978;DHT22;3529;53.244;10.414;2022-10-31T15:26:50;13.60;99.90
6978;DHT22;3529;53.244;10.414;2022-10-31T15:29:19;13.50;99.90
6978;DHT22;3529;53.244;10.414;2022-10-31T15:34:40;13.40;99.90
6978;DHT22;3529;53.244;10.414;2022-10-31T15:37:16;13.30;99.90
6978;DHT22;3529;53.244;10.414;2022-10-31T15:39:42;13.20;99.90
6978;DHT22;3529;53.244;10.414;2022-10-31T15:42:24;13.20;99.90
6978;DHT22;3529;53.244;10.414;2022-10-31T15:45:21;13.20;99.90
6978;DHT22;3529;53.244;10.414;2022-10-31T15:47:57;13.10;99.90
6978;DHT22;3529;53.244;10.414;2022-10-31T15:50:38;13.10;99.90
6978;DHT22;3529;53.244;10.414;2022-10-31T15:53:13;13.00;99.90
6978;DHT22;3529;53.244;10.414;2022-10-31T15:55:55;12.90;99.90
6978;DHT22;3529;53.244;10.414;2022-10-31T15:58:22;12.90;99.90
6978;DHT22;3529;53.244;10.414;2022-10-31T16:06:23;12.70;99.90
6978;DHT22;3529;53.244;10.414;2022-10-31T16:08:50;12.60;99.90
6978;DHT22;3529;53.244;10.414;2022-10-31T16:11:22;12.60;99.90
6978;DHT22;3529;53.244;10.414;2022-10-31T16:14:17;12.60;99.90
6978;DHT22;3529;53.244;10.414;2022-10-31T16:16:47;12.60;99.90
6978;DHT22;3529;53.244;10.414;2022-10-31T16:21:48;12.50;99.90
6978;DHT22;3529;53.244;10.414;2022-10-31T16:24:28;12.50;99.90
6978;DHT22;3529;53.244;10.414;2022-10-31T16:27:03;12.40;99.90
6978;DHT22;3529;53.244;10.414;2022-10-31T16:29:36;12.40;99.90
6978;DHT22;3529;53.244;10.414;2022-10-31T16:32:03;12.40;99.90
